Latest Weather Observations for Bairnsdale

IDV60801

Issued at 7:35 pm EDT Thursday 23 October 2014 (issued every 30 minutes, with the page automatically refreshed every 10 minutes)

About weather observations | Map of weather stations | Latest weather observations for VIC | Other Formats
Station Details ID: 085279 Name: BAIRNSDALE AIRPORT Lat: -37.88 Lon: 147.57 Height: 49.4 m
Data from the previous 72 hours. | See also: Recent months at Bairnsdale
Date/Time
EDT
Temp
°C
App
Temp
°C
Dew
Point
Rel
Hum
%
Delta-T
°C
Wind Press
QNH
hPa
Press
MSL
hPa
Rain
since 9 am
mm
Dir
 
Spd
km/h
Gust
km/h
Spd
kts
Gust
kts
23/07:30pm 15.6 13.4 14.5 93 0.6 E 19 26 10 14 1020.2 1020.2 0.0
23/07:00pm 15.4 13.2 14.3 93 0.6 E 19 24 10 13 1020.0 1020.0 0.0
23/06:30pm 15.5 13.0 14.2 92 0.7 ESE 20 26 11 14 1020.0 1020.0 0.0
23/06:00pm 15.6 13.3 14.1 91 0.8 ESE 19 24 10 13 1020.1 1020.1 0.0
23/05:30pm 15.8 12.8 13.8 88 1.1 ESE 22 28 12 15 1019.9 1019.9 0.0
23/05:00pm 16.4 13.1 13.9 85 1.4 ESE 24 33 13 18 1019.7 1019.7 0.0
23/04:30pm 15.9 11.8 13.7 87 1.2 ESE 28 37 15 20 1019.7 1019.7 0.0
23/04:00pm 16.2 12.9 13.9 86 1.3 ESE 24 33 13 18 1019.7 1019.7 0.0
23/03:30pm 16.3 12.1 13.6 84 1.5 ESE 28 35 15 19 1019.9 1019.9 0.0
23/03:00pm 16.5 12.8 14.0 85 1.4 ESE 26 39 14 21 1019.9 1019.9 0.0
23/02:30pm 16.5 13.3 14.3 87 1.3 ESE 24 32 13 17 1020.2 1020.2 0.0
23/02:00pm 16.7 13.6 14.5 87 1.3 ESE 24 32 13 17 1020.4 1020.4 0.0
23/01:30pm 16.8 14.5 14.6 87 1.3 ESE 20 26 11 14 1020.5 1020.5 0.0
23/01:07pm 16.7 14.5 14.5 87 1.3 ESE 19 24 10 13 1020.7 1020.7 0.0
23/01:00pm 16.9 14.7 14.5 86 1.4 SE 19 24 10 13 1020.6 1020.6 0.0
23/12:30pm 16.9 15.0 15.1 89 1.0 ESE 19 26 10 14 1020.8 1020.8 0.0
23/12:00pm 16.4 15.0 15.6 95 0.5 SE 17 20 9 11 1020.9 1020.9 0.0
23/11:30am 16.6 15.0 15.1 91 0.9 SSE 17 20 9 11 1021.1 1021.1 0.0
23/11:13am 16.8 15.4 14.6 87 1.3 SSE 15 19 8 10 1021.1 1021.1 0.0
23/11:07am 16.9 15.5 14.4 85 1.4 SSE 15 19 8 10 1021.1 1021.1 0.0
23/11:00am 17.1 16.0 14.2 83 1.7 SSE 13 17 7 9 1021.1 1021.1 0.0
23/10:41am 17.3 15.7 13.8 80 2.0 SSE 15 19 8 10 1021.0 1021.0 0.0
23/10:30am 17.7 16.7 14.6 82 1.8 SSE 13 17 7 9 1021.0 1021.0 0.0
23/10:00am 17.1 16.8 14.4 84 1.5 SW 9 13 5 7 1020.7 1020.7 0.0
23/09:55am 17.0 16.3 14.3 84 1.5 SW 11 13 6 7 1020.7 1020.7 0.0
23/09:52am 17.1 16.4 14.4 84 1.6 SW 11 13 6 7 1020.7 1020.7 0.0
23/09:30am 17.3 16.7 14.6 84 1.6 W 11 15 6 8 1020.5 1020.5 0.0
23/09:00am 16.7 15.6 14.2 85 1.4 WSW 13 19 7 10 1020.4 1020.4 0.0
23/08:30am 16.2 14.2 14.0 87 1.2 WSW 17 22 9 12 1020.2 1020.2 0.0
23/08:00am 15.9 14.3 13.9 88 1.1 WSW 15 24 8 13 1019.9 1019.9 0.0
23/07:48am 15.6 13.2 13.8 89 1.0 SW 19 28 10 15 1019.7 1019.7 0.0
23/07:30am 15.5 11.8 13.9 90 0.9 SW 26 33 14 18 1019.2 1019.2 0.0
23/07:00am 15.1 10.9 13.6 91 0.8 SW 28 33 15 18 1018.4 1018.4 0.0
23/06:30am 15.7 13.6 13.7 88 1.1 SSW 17 24 9 13 1017.8 1017.8 0.0
23/06:00am 16.2 13.5 13.5 84 1.5 S 20 30 11 16 1017.4 1017.4 0.0
23/05:30am 17.3 15.5 13.4 78 2.2 WNW 15 19 8 10 1016.3 1016.3 0.0
23/05:00am 18.1 16.3 13.4 74 2.7 N 15 19 8 10 1015.4 1015.4 0.0
23/04:30am 17.8 16.9 13.7 77 2.3 NNW 11 17 6 9 1015.7 1015.7 0.0
23/04:00am 18.5 16.5 14.0 75 2.6 ESE 17 20 9 11 1015.4 1015.4 0.0
23/03:30am 18.7 15.7 13.8 73 2.8 SW 22 32 12 17 1017.1 1017.1 0.0
23/03:00am 18.8 15.8 13.6 72 3.0 WSW 22 33 12 18 1017.0 1017.0 0.0
23/02:58am 18.8 15.8 13.6 72 3.0 WSW 22 33 12 18 1016.8 1016.8 0.0
23/02:39am 18.4 14.9 13.3 72 2.9 WSW 24 32 13 17 1016.9 1016.9 0.0
23/02:30am 17.3 15.5 13.4 78 2.2 W 15 22 8 12 1017.1 1017.1 0.0
23/02:00am 16.0 14.8 12.9 82 1.7 W 11 15 6 8 1016.1 1016.1 0.0
23/01:30am 16.7 15.2 13.0 79 2.1 SW 13 19 7 10 1016.1 1016.1 0.0
23/01:00am 17.5 17.4 13.8 79 2.1 NW 7 9 4 5 1015.7 1015.7 0.0
23/12:30am 17.7 17.1 13.6 77 2.3 NNW 9 11 5 6 1015.5 1015.5 0.0
23/12:00am 16.6 16.8 13.1 80 2.0 NW 4 7 2 4 1015.6 1015.6 0.0
 
Date/Time
EDT
Temp
°C
App
Temp
°C
Dew
Point
Rel
Hum
%
Delta-T
°C
Wind Press
QNH
hPa
Press
MSL
hPa
Rain
since 9 am
mm
Dir
 
Spd
km/h
Gust
km/h
Spd
kts
Gust
kts
22/11:30pm 17.7 17.6 13.4 76 2.4 NE 6 7 3 4 1015.8 1015.8 0.0
22/11:00pm 18.6 17.3 12.6 68 3.4 NNE 11 15 6 8 1015.7 1015.7 0.0
22/10:30pm 19.1 18.0 12.1 64 3.9 ESE 9 13 5 7 1016.0 1016.0 0.0
22/10:00pm 19.2 18.6 12.2 64 3.9 ESE 7 9 4 5 1016.3 1016.3 0.0
22/09:30pm 19.1 17.5 11.7 62 4.1 NE 11 13 6 7 1016.1 1016.1 0.0
22/09:00pm 19.6 17.7 10.6 56 4.9 ENE 11 13 6 7 1016.2 1016.2 0.0
22/08:30pm 19.5 18.1 10.8 57 4.7 E 9 11 5 6 1016.1 1016.1 0.0
22/08:00pm 20.0 18.2 11.0 56 4.9 E 11 13 6 7 1015.8 1015.8 0.0
22/07:30pm 20.9 18.9 11.5 55 5.2 E 13 13 7 7 1015.8 1015.8 0.0
22/07:00pm 22.4 20.9 11.8 51 6.0 E 11 13 6 7 1015.6 1015.6 0.0
22/06:30pm 23.7 20.7 10.7 44 7.2 E 17 22 9 12 1015.6 1015.6 0.0
22/06:00pm 25.1 23.5 12.7 46 7.2 E 13 19 7 10 1015.5 1015.5 0.0
22/05:30pm 25.6 23.5 13.5 47 7.1 E 17 22 9 12 1015.5 1015.5 0.0
22/05:00pm 26.1 24.4 13.6 46 7.4 ESE 15 20 8 11 1015.8 1015.8 0.0
22/04:30pm 26.7 24.4 13.1 43 8.0 E 17 20 9 11 1015.8 1015.8 0.0
22/04:00pm 27.6 25.8 13.2 41 8.5 E 15 19 8 10 1016.0 1016.0 0.0
22/03:30pm 28.1 26.8 14.7 44 8.1 E 15 19 8 10 1016.2 1016.2 0.0
22/03:00pm 27.8 26.5 14.8 45 7.9 E 15 20 8 11 1016.5 1016.5 0.0
22/02:30pm 27.8 26.2 15.1 46 7.7 ESE 17 24 9 13 1016.9 1016.9 0.0
22/02:00pm 27.9 27.4 14.9 45 7.9 NNE 11 19 6 10 1017.2 1017.2 0.0
22/01:30pm 28.8 27.7 11.8 35 9.9 NNW 9 17 5 9 1017.6 1017.6 0.0
22/01:00pm 27.9 26.8 10.6 34 9.8 N 7 15 4 8 1017.9 1017.9 0.0
22/12:30pm 27.1 26.4 13.1 42 8.2 WNW 9 15 5 8 1018.4 1018.4 0.0
22/12:00pm 25.9 26.3 14.7 50 6.7 W 6 9 3 5 1018.8 1018.8 0.0
22/11:30am 25.7 26.4 16.0 55 5.9 NE 7 11 4 6 1019.0 1019.0 0.0
22/11:00am 23.7 23.9 15.7 61 4.8 NE 9 13 5 7 1019.3 1019.3 0.0
22/10:30am 22.5 22.3 14.6 61 4.7 NE 9 11 5 6 1019.8 1019.8 0.0
22/10:00am 20.8 20.8 14.2 66 3.8 NE 7 13 4 7 1020.2 1020.2 0.0
22/09:30am 18.6 18.6 14.1 75 2.6 NE 7 9 4 5 1020.4 1020.4 0.0
22/09:00am 16.5 17.0 14.9 90 0.9 ENE 6 7 3 4 1020.5 1020.5 0.0
22/08:30am 14.0 15.2 13.8 99 0.1 CALM 0 0 0 0 1020.9 1020.9 0.0
22/08:00am 12.3 11.9 12.3 100 0.0 NNE 6 7 3 4 1021.1 1021.1 0.0
22/07:36am 11.1 11.0 10.9 99 0.1 NNW 2 6 1 3 1021.0 1021.0 0.0
22/07:30am 11.0 10.5 10.8 99 0.1 NNW 4 6 2 3 1021.1 1021.1 0.0
22/07:00am 9.4 9.3 9.3 99 0.0 CALM 0 0 0 0 1021.2 1021.2 0.0
22/06:30am 9.5 9.4 9.4 99 0.0 CALM 0 0 0 0 1021.2 1021.2 0.0
22/06:26am 9.4 9.3 9.3 99 0.0 CALM 0 0 0 0 1021.2 1021.2 0.0
22/06:17am 7.7 7.1 7.6 99 0.0 CALM 0 0 0 0 1021.1 1021.1 0.0
22/06:02am 7.9 6.3 7.8 99 0.0 W 6 6 3 3 1021.1 1021.1 0.0
22/06:00am 7.8 6.5 7.7 99 0.0 W 4 6 2 3 1021.0 1021.0 0.0
22/05:30am 6.6 5.7 6.2 97 0.2 CALM 0 0 0 0 1020.8 1020.8 0.0
22/05:00am 7.9 7.3 7.6 98 0.1 CALM 0 0 0 0 1020.8 1020.8 0.0
22/04:30am 7.3 6.5 6.7 96 0.3 CALM 0 0 0 0 1021.0 1021.0 0.0
22/04:00am 8.2 7.6 7.6 96 0.3 CALM 0 0 0 0 1021.3 1021.3 0.0
22/03:30am 9.0 8.7 8.7 98 0.1 CALM 0 0 0 0 1021.6 1021.6 0.0
22/03:00am 10.0 8.7 9.9 99 0.1 NE 7 7 4 4 1022.1 1022.1 0.0
22/02:30am 10.3 9.6 10.0 98 0.2 NNW 4 7 2 4 1022.5 1022.5 0.0
22/02:00am 10.7 9.7 10.4 98 0.2 W 6 7 3 4 1022.8 1022.8 0.0
22/01:30am 10.9 9.8 10.7 99 0.1 W 7 11 4 6 1023.2 1023.2 0.0
22/01:00am 10.6 9.4 10.3 98 0.2 WNW 7 13 4 7 1023.6 1023.6 0.0
22/12:30am 10.7 9.2 10.4 98 0.2 W 9 13 5 7 1024.0 1024.0 0.0
22/12:00am 10.1 8.3 9.3 95 0.4 WNW 9 13 5 7 1024.4 1024.4 0.0
 
Date/Time
EDT
Temp
°C
App
Temp
°C
Dew
Point
Rel
Hum
%
Delta-T
°C
Wind Press
QNH
hPa
Press
MSL
hPa
Rain
since 9 am
mm
Dir
 
Spd
km/h
Gust
km/h
Spd
kts
Gust
kts
21/11:30pm 11.4 10.6 10.9 97 0.3 W 6 7 3 4 1024.5 1024.5 0.0
21/11:00pm 11.4 9.6 10.9 97 0.3 WNW 11 15 6 8 1024.8 1024.8 0.0
21/10:30pm 10.8 9.1 10.0 95 0.4 WNW 9 11 5 6 1024.9 1024.9 0.0
21/10:00pm 11.0 9.8 10.2 95 0.4 W 7 9 4 5 1025.0 1025.0 0.0
21/09:30pm 10.9 9.5 9.7 92 0.6 WSW 7 9 4 5 1025.1 1025.1 0.0
21/09:00pm 11.5 9.5 10.1 91 0.7 WSW 11 11 6 6 1025.0 1025.0 0.0
21/08:30pm 11.5 9.8 9.9 90 0.8 SW 9 11 5 6 1025.0 1025.0 0.0
21/08:00pm 12.6 11.0 10.1 85 1.3 SSW 9 9 5 5 1024.8 1024.8 0.0
21/07:30pm 15.3 14.1 11.5 78 2.0 S 9 11 5 6 1024.8 1024.8 0.0
21/07:00pm 16.8 15.1 11.3 70 3.0 SSE 11 13 6 7 1024.8 1024.8 0.0
21/06:30pm 17.3 14.8 11.1 67 3.4 SE 15 17 8 9 1024.7 1024.7 0.0
21/06:00pm 17.8 15.0 11.4 66 3.5 SE 17 20 9 11 1024.9 1024.9 0.0
21/05:30pm 18.8 16.4 11.4 62 4.1 ESE 15 19 8 10 1024.9 1024.9 0.0
21/05:00pm 19.2 16.4 11.5 61 4.2 ESE 17 22 9 12 1025.1 1025.1 0.0
21/04:30pm 19.2 15.8 10.5 57 4.7 ESE 19 24 10 13 1025.3 1025.3 0.0
21/04:00pm 19.3 15.6 10.0 55 5.0 SE 20 28 11 15 1025.5 1025.5 0.0
21/03:30pm 19.7 16.0 9.6 52 5.4 SE 19 24 10 13 1025.8 1025.8 0.0
21/03:00pm 19.8 16.7 10.2 54 5.1 ESE 17 24 9 13 1026.1 1026.1 0.0
21/02:30pm 19.2 15.9 9.4 53 5.2 ESE 17 24 9 13 1026.6 1026.6 0.0
21/02:00pm 19.3 16.4 9.5 53 5.2 ESE 15 26 8 14 1027.0 1027.0 0.0
21/01:30pm 19.7 18.0 11.2 58 4.7 E 11 30 6 16 1027.4 1027.4 0.0
21/01:00pm 18.8 17.1 9.8 56 4.8 ENE 9 15 5 8 1027.7 1027.7 0.0
21/12:30pm 18.4 17.0 9.7 57 4.6 ENE 7 17 4 9 1028.1 1028.1 0.0
21/12:00pm 17.5 15.6 9.2 58 4.3 NE 9 19 5 10 1028.5 1028.6 0.0
21/11:30am 16.9 15.1 9.3 61 4.0 E 9 17 5 9 1028.8 1028.9 0.0
21/11:00am 16.4 14.6 9.3 63 3.7 ENE 9 17 5 9 1029.1 1029.2 0.0
21/10:30am 16.0 14.2 9.4 65 3.4 NNE 9 13 5 7 1029.5 1029.5 0.0
21/10:00am 14.5 12.3 8.0 65 3.2 NE 9 13 5 7 1029.7 1029.7 0.0
21/09:30am 13.7 11.2 8.3 70 2.7 NE 11 13 6 7 1029.7 1029.7 0.0
21/09:00am 12.4 9.3 7.3 71 2.5 ENE 13 19 7 10 1029.7 1029.7 0.0
21/08:30am 12.9 10.6 9.0 77 2.0 E 11 15 6 8 1029.6 1029.6 0.0
21/08:00am 11.5 9.0 8.0 79 1.7 E 11 13 6 7 1029.5 1029.5 0.0
21/07:30am 10.3 8.4 7.5 83 1.3 ENE 7 9 4 5 1029.6 1029.6 0.0
21/07:00am 10.0 7.0 7.9 87 1.0 E 13 17 7 9 1029.2 1029.3 0.0
21/06:30am 8.2 5.2 6.0 86 1.0 E 11 17 6 9 1029.1 1029.2 0.0
21/06:00am 7.9 4.5 5.7 86 1.0 E 13 17 7 9 1028.9 1029.0 0.0
21/05:30am 8.4 4.6 5.9 84 1.1 ENE 15 20 8 11 1028.9 1029.0 0.0
21/05:00am 8.7 4.6 6.2 84 1.1 E 17 20 9 11 1028.8 1028.9 0.0
21/04:30am 8.5 4.8 6.1 85 1.1 E 15 17 8 9 1028.9 1029.0 0.0
21/04:00am 8.5 5.0 5.6 82 1.3 E 13 17 7 9 1029.2 1029.3 0.0
21/03:30am 8.7 5.7 5.8 82 1.3 ENE 11 13 6 7 1029.6 1029.6 0.0
21/03:00am 8.7 5.7 5.8 82 1.3 ENE 11 13 6 7 1029.8 1029.8 0.0
21/02:30am 9.3 6.3 5.9 79 1.6 ENE 11 15 6 8 1030.0 1030.0 0.0
21/02:00am 9.5 6.5 6.2 80 1.5 ENE 11 15 6 8 1030.2 1030.2 0.0
21/01:30am 10.0 7.0 6.2 77 1.8 E 11 13 6 7 1030.5 1030.5 0.0
21/01:00am 11.0 7.7 6.2 72 2.2 E 13 17 7 9 1030.8 1030.8 0.0
21/12:30am 12.0 8.7 6.5 69 2.6 E 13 17 7 9 1031.0 1031.0 0.0
21/12:00am 12.7 8.1 6.5 66 2.9 E 20 30 11 16 1031.2 1031.2 0.0
 
Date/Time
EDT
Temp
°C
App
Temp
°C
Dew
Point
Rel
Hum
%
Delta-T
°C
Wind Press
QNH
hPa
Press
MSL
hPa
Rain
since 9 am
mm
Dir
 
Spd
km/h
Gust
km/h
Spd
kts
Gust
kts
20/11:30pm 13.2 7.5 6.8 65 3.1 E 26 35 14 19 1031.4 1031.4 0.0
20/11:00pm 13.2 7.5 6.5 64 3.2 E 26 39 14 21 1031.3 1031.3 0.0
20/10:30pm 13.2 6.1 6.3 63 3.3 E 33 43 18 23 1031.6 1031.6 0.0
20/10:00pm 13.2 5.8 6.8 65 3.1 E 35 48 19 26 1031.6 1031.6 0.0
20/09:30pm 13.0 6.1 6.4 64 3.2 E 32 41 17 22 1031.4 1031.4 0.0
20/09:00pm 12.8 5.7 6.2 64 3.1 E 33 43 18 23 1031.6 1031.6 0.0
20/08:30pm 12.4 7.1 6.7 68 2.7 E 24 33 13 18 1031.3 1031.3 0.0
20/08:00pm 12.7 5.7 6.1 64 3.1 E 32 43 17 23 1031.2 1031.2 0.0

Other Formats:

Comma delimited format used in spreadsheet applications
http://www.bom.gov.au/fwo/IDV60801/IDV60801.94912.axf

JavaScript Object Notation format (JSON) in row-major order
http://www.bom.gov.au/fwo/IDV60801/IDV60801.94912.json